createdAt,value
2023-03-08T00:00:15.680Z,91.692475
2023-03-08T00:05:15.866Z,83.179112
2023-03-08T00:10:16.797Z,71.642928
2023-03-08T00:15:16.382Z,61.105591
2023-03-08T00:20:16.227Z,59.172835
2023-03-08T00:25:17.351Z,53.134695
2023-03-08T00:30:15.723Z,48.909722
2023-03-08T00:35:15.670Z,36.997618
2023-03-08T00:40:16.299Z,25.074992
2023-03-08T00:45:15.647Z,13.456769
2023-03-08T00:50:15.903Z,7.128730
2023-03-08T00:55:15.714Z,5.577735
2023-03-08T01:00:16.449Z,6.004763
2023-03-08T01:05:16.326Z,6.455946
2023-03-08T01:10:15.668Z,7.679275
2023-03-08T01:15:16.043Z,7.236414
2023-03-08T01:20:15.920Z,6.367759
2023-03-08T01:25:16.307Z,6.954717
2023-03-08T01:30:15.778Z,7.397857
2023-03-08T01:35:15.824Z,6.524025
2023-03-08T01:40:16.395Z,4.718960
2023-03-08T01:45:16.334Z,2.627318
2023-03-08T01:50:17.061Z,1.400560
2023-03-08T01:55:15.949Z,0.712266
2023-03-08T02:00:15.572Z,0.340159
2023-03-08T02:05:17.433Z,0.070599
2023-03-08T02:10:16.429Z,0.014872
2023-03-08T02:15:17.092Z,0.013881
2023-03-08T02:20:16.143Z,0.002270
2023-03-08T02:25:16.512Z,0.000000
2023-03-08T02:30:15.509Z,0.002314
2023-03-08T02:35:16.866Z,0.000000
2023-03-08T02:40:16.594Z,0.002292
2023-03-08T02:45:16.476Z,0.000000
2023-03-08T02:50:16.212Z,0.002292
2023-03-08T02:55:16.520Z,0.000000
2023-03-08T03:00:15.483Z,0.006859
2023-03-08T03:05:16.589Z,0.000000
2023-03-08T03:10:17.528Z,0.006859
2023-03-08T03:15:15.966Z,0.004541
2023-03-08T03:20:16.014Z,0.000000
2023-03-08T03:25:15.874Z,0.000000
2023-03-08T03:30:16.552Z,0.000000
2023-03-08T03:35:17.433Z,0.000000
2023-03-08T03:40:16.754Z,0.000000
2023-03-08T03:45:17.316Z,0.000000
2023-03-08T03:50:15.979Z,0.002276
2023-03-08T03:55:16.342Z,0.000000
2023-03-08T04:00:16.451Z,0.000000
2023-03-08T04:05:16.052Z,0.002303
2023-03-08T04:10:15.727Z,0.002308
2023-03-08T04:15:16.611Z,0.000000
2023-03-08T04:20:16.093Z,0.004583
2023-03-08T04:25:16.904Z,0.002297
2023-03-08T04:30:15.874Z,0.004605
2023-03-08T04:35:15.842Z,0.002319
2023-03-08T04:40:17.069Z,0.006891
2023-03-08T04:45:15.794Z,0.006811
2023-03-08T04:50:16.093Z,0.000000
2023-03-08T04:55:16.208Z,0.011405
2023-03-08T05:00:15.999Z,0.000000
2023-03-08T05:05:15.990Z,0.004573
2023-03-08T05:10:15.724Z,0.000000
2023-03-08T05:15:17.451Z,0.000000
2023-03-08T05:20:17.521Z,0.004594
2023-03-08T05:25:16.205Z,0.002265
2023-03-08T05:30:16.772Z,0.002260
2023-03-08T05:35:15.673Z,0.002270
2023-03-08T05:40:16.117Z,0.004520
2023-03-08T05:45:16.343Z,0.002209
2023-03-08T05:50:16.211Z,0.006656
2023-03-08T05:55:16.122Z,0.008998
2023-03-08T06:00:16.782Z,0.004458
2023-03-08T06:05:15.792Z,0.006717
2023-03-08T06:10:15.997Z,0.004499
2023-03-08T06:15:16.630Z,0.002229
2023-03-08T06:20:16.272Z,0.004447
2023-03-08T06:25:15.648Z,0.004397
2023-03-08T06:30:15.730Z,0.002219
2023-03-08T06:35:15.518Z,0.000000
2023-03-08T06:40:16.887Z,0.000000
2023-03-08T06:45:15.891Z,0.002214
2023-03-08T06:50:16.756Z,0.008735
2023-03-08T06:55:16.267Z,0.008775
2023-03-08T07:00:16.739Z,0.004358
2023-03-08T07:05:15.942Z,0.002189
2023-03-08T07:10:16.306Z,0.004338
2023-03-08T07:15:15.652Z,0.002169
2023-03-08T07:20:17.081Z,0.002174
2023-03-08T07:25:15.507Z,0.000000
2023-03-08T07:30:15.718Z,0.000000
2023-03-08T07:35:15.622Z,0.004358
2023-03-08T07:40:16.142Z,0.002189
2023-03-08T07:45:16.332Z,0.006581
2023-03-08T07:50:16.114Z,0.004387
2023-03-08T07:55:16.274Z,0.002229
2023-03-08T08:00:15.744Z,0.002239
2023-03-08T08:05:16.020Z,0.006596
2023-03-08T08:10:16.219Z,0.000000
2023-03-08T08:15:16.014Z,0.006656
2023-03-08T08:20:16.091Z,0.002224
2023-03-08T08:25:16.452Z,0.008936
2023-03-08T08:30:16.325Z,0.002234
2023-03-08T08:35:16.085Z,0.000000
2023-03-08T08:40:17.522Z,0.006733
2023-03-08T08:45:16.015Z,0.004427
2023-03-08T08:50:16.089Z,0.000000
2023-03-08T08:55:16.198Z,0.002224
2023-03-08T09:00:16.395Z,0.004458
2023-03-08T09:05:16.684Z,0.004417
2023-03-08T09:10:15.844Z,0.005385
2023-03-08T09:15:16.750Z,0.000000
2023-03-08T09:20:15.619Z,0.006686
2023-03-08T09:25:16.700Z,0.002249
2023-03-08T09:30:16.003Z,0.002214
2023-03-08T09:35:16.383Z,0.004458
2023-03-08T09:40:15.776Z,0.002244
2023-03-08T09:45:16.728Z,0.000000
2023-03-08T09:50:17.024Z,0.006733
2023-03-08T09:55:15.926Z,0.002281
2023-03-08T10:00:16.073Z,0.004562
2023-03-08T10:05:16.141Z,0.006717
2023-03-08T10:10:16.970Z,0.004562
2023-03-08T10:15:16.166Z,0.004509
2023-03-08T10:20:16.058Z,0.000000
2023-03-08T10:25:15.778Z,0.004551
2023-03-08T10:30:15.880Z,0.000000
2023-03-08T10:35:16.984Z,0.000000
2023-03-08T10:40:16.136Z,0.011299
2023-03-08T10:45:15.963Z,0.010042
2023-03-08T10:50:16.140Z,0.006811
2023-03-08T10:55:17.096Z,0.006811
2023-03-08T11:00:16.171Z,0.004509
2023-03-08T11:05:15.694Z,0.004541
2023-03-08T11:10:15.561Z,0.004520
2023-03-08T11:15:16.429Z,0.011325
2023-03-08T11:20:16.542Z,0.006764
2023-03-08T11:25:16.454Z,0.002239
2023-03-08T11:30:16.254Z,0.004478
2023-03-08T11:35:16.334Z,0.000000
2023-03-08T11:40:17.254Z,0.006843
2023-03-08T11:45:16.319Z,0.002286
2023-03-08T11:50:15.646Z,0.000000
2023-03-08T11:55:15.921Z,0.002244
2023-03-08T12:00:16.246Z,0.009145
2023-03-08T12:05:16.000Z,0.002239
2023-03-08T12:10:18.940Z,0.006717
2023-03-08T12:15:15.685Z,0.000000
2023-03-08T12:20:16.415Z,0.002224
2023-03-08T12:25:16.863Z,0.002255
2023-03-08T12:30:15.663Z,0.004541
2023-03-08T12:35:17.344Z,0.002229
2023-03-08T12:40:16.507Z,0.002239
2023-03-08T12:45:15.718Z,0.006764
2023-03-08T12:50:15.906Z,0.006717
2023-03-08T12:55:16.169Z,0.004499
2023-03-08T13:00:16.868Z,0.002292
2023-03-08T13:05:16.286Z,0.004562
2023-03-08T13:10:17.150Z,0.009039
2023-03-08T13:15:16.413Z,0.004583
2023-03-08T13:20:16.416Z,0.002255
2023-03-08T13:25:16.029Z,0.004488
2023-03-08T13:30:16.912Z,0.002249
2023-03-08T13:35:15.842Z,0.002303
2023-03-08T13:40:16.119Z,0.000000
2023-03-08T13:45:17.239Z,0.006581
2023-03-08T13:50:16.509Z,0.002286
2023-03-08T13:55:17.121Z,0.004573
2023-03-08T14:00:16.343Z,0.002229
2023-03-08T14:05:15.943Z,0.004468
2023-03-08T14:10:16.321Z,0.000000
2023-03-08T14:15:16.408Z,0.000000
2023-03-08T14:20:17.066Z,0.002429
2023-03-08T14:25:16.547Z,0.011995
2023-03-08T14:30:16.404Z,0.030000
2023-03-08T14:35:16.402Z,0.133066
2023-03-08T14:40:16.359Z,0.259712
2023-03-08T14:45:16.745Z,0.836682
2023-03-08T14:50:16.358Z,1.844627
2023-03-08T14:55:17.478Z,3.270616
2023-03-08T15:00:16.436Z,6.049581
2023-03-08T15:05:25.547Z,9.420454
2023-03-08T15:10:16.158Z,12.788076
2023-03-08T15:15:16.034Z,13.873978
2023-03-08T15:20:17.704Z,20.705953
2023-03-08T15:25:17.465Z,25.276704
2023-03-08T15:30:16.971Z,20.345535
2023-03-08T15:35:15.701Z,24.197543
2023-03-08T15:40:16.208Z,16.443957
2023-03-08T15:45:16.176Z,8.034318
2023-03-08T15:50:15.676Z,21.059996
2023-03-08T15:55:16.020Z,31.315159
2023-03-08T16:00:18.226Z,20.709084
2023-03-08T16:05:16.224Z,19.640454
2023-03-08T16:10:16.257Z,43.546372
2023-03-08T16:15:16.205Z,56.733137
2023-03-08T16:20:16.755Z,53.172078
2023-03-08T16:25:16.777Z,57.705672
2023-03-08T16:30:15.682Z,34.545207
2023-03-08T16:35:16.192Z,25.887930
2023-03-08T16:40:16.986Z,20.411603
2023-03-08T16:45:15.788Z,27.966882
2023-03-08T16:50:15.623Z,37.494747
2023-03-08T16:55:15.508Z,66.301946
2023-03-08T17:00:15.866Z,77.246558
2023-03-08T17:05:16.041Z,64.279280
2023-03-08T17:10:16.080Z,82.443765
2023-03-08T17:15:16.108Z,121.622514
2023-03-08T17:20:16.983Z,140.533043
2023-03-08T17:25:15.656Z,145.235815
2023-03-08T17:30:17.652Z,150.527944
2023-03-08T17:35:16.486Z,160.599921
2023-03-08T17:40:16.246Z,196.961008
2023-03-08T17:45:16.342Z,238.096699
2023-03-08T17:50:16.281Z,195.816841
2023-03-08T17:55:15.544Z,209.087119
2023-03-08T18:00:16.457Z,225.554788
2023-03-08T18:05:16.159Z,229.788140
2023-03-08T18:10:15.941Z,235.913797
2023-03-08T18:15:15.988Z,384.135571
2023-03-08T18:20:16.092Z,416.724531
2023-03-08T18:25:16.055Z,483.915534
2023-03-08T18:30:15.709Z,464.937589
2023-03-08T18:35:17.413Z,459.679696
2023-03-08T18:40:16.158Z,462.321355
2023-03-08T18:45:16.539Z,462.601975
2023-03-08T18:50:16.073Z,470.150116
2023-03-08T18:55:16.353Z,493.408841
2023-03-08T19:00:16.126Z,496.094177
2023-03-08T19:05:15.883Z,488.060610
2023-03-08T19:10:16.857Z,422.320440
2023-03-08T19:15:16.379Z,455.322032
2023-03-08T19:20:16.913Z,287.191078
2023-03-08T19:25:15.709Z,370.363046
2023-03-08T19:30:16.479Z,593.822562
2023-03-08T19:35:16.347Z,454.093829
2023-03-08T19:40:15.697Z,321.189189
2023-03-08T19:45:16.903Z,388.472247
2023-03-08T19:50:17.655Z,311.380320
2023-03-08T19:55:15.617Z,307.341347
2023-03-08T20:00:16.623Z,336.447608
2023-03-08T20:05:15.861Z,361.944565
2023-03-08T20:10:16.806Z,465.352837
2023-03-08T20:15:16.684Z,451.954767
2023-03-08T20:20:21.929Z,410.009497
2023-03-08T20:25:15.821Z,586.142896
2023-03-08T20:30:15.932Z,517.447473
2023-03-08T20:35:16.746Z,313.839872
2023-03-08T20:40:16.749Z,299.397928
2023-03-08T20:45:16.777Z,531.625635
2023-03-08T20:50:15.509Z,461.288229
2023-03-08T20:55:16.235Z,353.584201
2023-03-08T21:00:16.175Z,308.394353
2023-03-08T21:05:16.060Z,350.932617
2023-03-08T21:10:15.772Z,259.560747
2023-03-08T21:15:16.213Z,232.375194
2023-03-08T21:20:15.945Z,214.881708
2023-03-08T21:25:15.756Z,191.030136
2023-03-08T21:30:15.561Z,148.839582
2023-03-08T21:35:16.272Z,127.590806
2023-03-08T21:40:16.340Z,122.866045
2023-03-08T21:45:16.418Z,115.347612
2023-03-08T21:50:16.852Z,111.372682
2023-03-08T21:55:18.185Z,102.083927
2023-03-08T22:00:16.642Z,93.821462
2023-03-08T22:05:17.065Z,80.729079
2023-03-08T22:10:16.398Z,59.689582
2023-03-08T22:15:16.009Z,37.343924
2023-03-08T22:20:15.819Z,28.641827
2023-03-08T22:25:17.359Z,28.462015
2023-03-08T22:30:18.841Z,50.041339
2023-03-08T22:35:16.715Z,72.194541
2023-03-08T22:40:16.285Z,90.170345
2023-03-08T22:45:17.723Z,103.156958
2023-03-08T22:50:16.639Z,103.063222
2023-03-08T22:55:17.168Z,107.383365
2023-03-08T23:00:16.007Z,95.414531
2023-03-08T23:05:21.434Z,78.156810
2023-03-08T23:10:15.902Z,78.644556
2023-03-08T23:15:16.875Z,69.087654
2023-03-08T23:20:16.771Z,65.196558
2023-03-08T23:25:16.423Z,66.792986
2023-03-08T23:30:16.074Z,70.453899
2023-03-08T23:35:15.733Z,70.578882
2023-03-08T23:40:16.384Z,66.546623
2023-03-08T23:45:16.518Z,62.321636
2023-03-08T23:50:15.933Z,58.504463
2023-03-08T23:55:16.626Z,70.426037
